Darby, Montana
Current Conditions -  °F | °C
As of 3:53 AM on Sunday 26 Oct 2014 (Local Time) from KMSO Reporting Station
Light Rain Light Rain  
Wind Chill: 42°   Ceiling: 4600
Heat Index: 48°   Visibility: 9mi
Dew Point: 40°   Wind: 16mph
Humidity: 74%   Direction: 280°W
Pressure: 29.79"   Gusts: 29mph
Location:  46.02°N, 114.18°W
Report Text: KMSO 260953Z AUTO 28014G25KT 9SM -RA BKN046 OVC060 09/04 A2979 RMK AO2 RAB39 SLP092 P0001 T00890044
Loading
Personal Weather Stations






























Interactive Weather Map
Tropical Storm Tracking
New forecast layout! Learn more

10-Day Weather Forecast

Advertisements
Track Severe Weather on mobile